Time;durP1;ratioP1;P1;durP2;ratioP2;P2;SDS_P1;SDS_P2;PMS_P1;PMS_P2;Temp;Humidity;BMP_temperature;BMP_pressure;BME280_temperature;BME280_humidity;BME280_pressure;Samples;Min_cycle;Max_cycle;Signal;HPM_P1;HPM_P2
2022/06/01 00:00:47;;;;;;;;;;;10.20;99.90;;;;;;4893579;29;19911;-56
2022/06/01 00:03:13;;;;;;;;;;;10.10;99.90;;;;;;4896775;29;19962;-57
2022/06/01 00:05:39;;;;;;;;;;;10.10;99.90;;;;;;4894256;29;19950;-57
2022/06/01 00:08:05;;;;;;;;;;;10.00;99.90;;;;;;4894337;29;20070;-57
2022/06/01 00:10:30;;;;;;;;;;;10.00;99.90;;;;;;4895742;29;19990;-57
2022/06/01 00:12:57;;;;;;;;;;;9.90;99.90;;;;;;4891912;29;19915;-57
2022/06/01 00:15:23;;;;;;;;;;;9.80;99.90;;;;;;4892752;29;19940;-57
2022/06/01 00:17:48;;;;;;;;;;;9.70;99.90;;;;;;4894798;29;19911;-57
2022/06/01 00:20:14;;;;;;;;;;;9.60;99.90;;;;;;4892562;29;19911;-57
2022/06/01 00:22:41;;;;;;;;;;;9.40;99.90;;;;;;4892242;29;19911;-56
2022/06/01 00:25:07;;;;;;;;;;;9.40;99.90;;;;;;4892670;29;20551;-57
2022/06/01 00:27:34;;;;;;;;;;;9.40;99.90;;;;;;4892869;29;19917;-57
2022/06/01 00:29:59;;;;;;;;;;;9.60;99.90;;;;;;4892180;29;19941;-57
2022/06/01 00:32:24;;;;;;;;;;;9.60;99.90;;;;;;4892429;29;19919;-57
2022/06/01 00:34:50;;;;;;;;;;;9.70;99.90;;;;;;4891368;29;20302;-57
2022/06/01 00:37:17;;;;;;;;;;;9.70;99.90;;;;;;4894790;29;19907;-57
2022/06/01 00:39:44;;;;;;;;;;;9.80;99.90;;;;;;4894389;29;20555;-57
2022/06/01 00:42:09;;;;;;;;;;;9.80;99.90;;;;;;4892586;29;19911;-56
2022/06/01 00:44:35;;;;;;;;;;;9.70;99.90;;;;;;4892384;29;19915;-57
2022/06/01 00:47:00;;;;;;;;;;;9.70;99.90;;;;;;4892857;29;19943;-57
2022/06/01 00:49:26;;;;;;;;;;;9.70;99.90;;;;;;4892158;29;20006;-56
2022/06/01 00:51:52;;;;;;;;;;;9.80;99.90;;;;;;4891704;29;19950;-56
2022/06/01 00:54:18;;;;;;;;;;;9.90;99.90;;;;;;4892000;29;20388;-57
2022/06/01 00:56:48;;;;;;;;;;;9.90;99.90;;;;;;4891479;29;19943;-57
2022/06/01 00:59:16;;;;;;;;;;;9.90;99.90;;;;;;4892029;29;20396;-57
2022/06/01 01:01:42;;;;;;;;;;;9.90;99.90;;;;;;4891232;29;19919;-57
2022/06/01 01:04:08;;;;;;;;;;;9.80;99.90;;;;;;4889757;29;19927;-57
2022/06/01 01:06:38;;;;;;;;;;;9.90;99.90;;;;;;4891640;29;19963;-56
2022/06/01 01:09:05;;;;;;;;;;;9.90;99.90;;;;;;4891055;29;19912;-57
2022/06/01 01:11:33;;;;;;;;;;;9.90;99.90;;;;;;4891632;29;20378;-57
2022/06/01 01:13:59;;;;;;;;;;;9.90;99.90;;;;;;4887708;29;20295;-57
2022/06/01 01:16:26;;;;;;;;;;;10.00;99.90;;;;;;4892378;29;19946;-57
2022/06/01 01:18:53;;;;;;;;;;;10.00;99.90;;;;;;4894881;29;19912;-57
2022/06/01 01:21:37;;;;;;;;;;;10.00;99.90;;;;;;4893256;29;20371;-57
2022/06/01 01:24:07;;;;;;;;;;;9.90;99.90;;;;;;4887289;29;20481;-57
2022/06/01 01:26:34;;;;;;;;;;;9.90;99.90;;;;;;4892340;29;19954;-57
2022/06/01 01:28:59;;;;;;;;;;;9.90;99.90;;;;;;4888452;29;20451;-57
2022/06/01 01:31:25;;;;;;;;;;;9.90;99.90;;;;;;4891341;29;19923;-57
2022/06/01 01:33:52;;;;;;;;;;;9.80;99.90;;;;;;4889137;29;20573;-57
2022/06/01 01:36:20;;;;;;;;;;;9.90;99.90;;;;;;4891407;29;20462;-57
2022/06/01 01:38:48;;;;;;;;;;;9.90;99.90;;;;;;4890674;29;19915;-57
2022/06/01 01:41:18;;;;;;;;;;;9.90;99.90;;;;;;4891273;29;19967;-57
2022/06/01 01:43:47;;;;;;;;;;;9.80;99.90;;;;;;4890814;29;19918;-57
2022/06/01 01:46:13;;;;;;;;;;;9.70;99.90;;;;;;4891034;29;19918;-57
2022/06/01 01:48:39;;;;;;;;;;;9.60;99.90;;;;;;4891323;29;19911;-57
2022/06/01 01:51:05;;;;;;;;;;;9.40;99.90;;;;;;4890447;29;19923;-56
2022/06/01 01:53:32;;;;;;;;;;;9.50;99.90;;;;;;4891018;29;19915;-57
2022/06/01 01:56:21;;;;;;;;;;;9.10;99.90;;;;;;4890495;29;19915;-57
2022/06/01 01:59:01;;;;;;;;;;;8.90;99.90;;;;;;4885263;29;19990;-58
2022/06/01 02:01:37;;;;;;;;;;;8.70;99.90;;;;;;4893610;29;20359;-57
2022/06/01 02:06:03;;;;;;;;;;;8.60;99.90;;;;;;4888462;29;20362;-57
2022/06/01 02:06:57;;;;;;;;;;;8.60;99.90;;;;;;4890731;29;19916;-56
2022/06/01 02:09:23;;;;;;;;;;;8.60;99.90;;;;;;4891468;29;19911;-57
2022/06/01 02:14:53;;;;;;;;;;;8.70;99.90;;;;;;4890960;29;19971;-56
2022/06/01 02:17:18;;;;;;;;;;;8.40;99.90;;;;;;4892746;29;19911;-58
2022/06/01 02:19:52;;;;;;;;;;;8.40;99.90;;;;;;4891383;29;19911;-57
2022/06/01 02:22:17;;;;;;;;;;;8.40;99.90;;;;;;4890667;29;19939;-57
2022/06/01 02:24:44;;;;;;;;;;;8.40;99.90;;;;;;4890981;29;20382;-56
2022/06/01 02:27:11;;;;;;;;;;;8.50;99.90;;;;;;4890450;29;20289;-57
2022/06/01 02:29:41;;;;;;;;;;;8.50;99.90;;;;;;4890703;29;19994;-57
2022/06/01 02:32:07;;;;;;;;;;;8.40;99.90;;;;;;4890154;29;20015;-57
2022/06/01 02:34:34;;;;;;;;;;;8.40;99.90;;;;;;4889494;29;19927;-57
2022/06/01 02:36:59;;;;;;;;;;;8.30;99.90;;;;;;4893943;29;19912;-57
2022/06/01 02:39:26;;;;;;;;;;;8.20;99.90;;;;;;4896831;29;20291;-57
2022/06/01 02:44:48;;;;;;;;;;;8.20;99.90;;;;;;4891814;29;19994;-57
2022/06/01 02:47:14;;;;;;;;;;;8.20;99.90;;;;;;4894362;29;19908;-57
2022/06/01 02:49:39;;;;;;;;;;;8.10;99.90;;;;;;4895692;29;20391;-56
2022/06/01 02:52:05;;;;;;;;;;;8.20;99.90;;;;;;4893701;29;19966;-57
2022/06/01 02:54:31;;;;;;;;;;;8.40;99.90;;;;;;4894337;29;20622;-57
2022/06/01 02:56:56;;;;;;;;;;;8.20;99.90;;;;;;4893754;29;19911;-57
2022/06/01 02:59:22;;;;;;;;;;;8.30;99.90;;;;;;4894299;29;20009;-57
2022/06/01 03:01:47;;;;;;;;;;;8.30;99.90;;;;;;4893123;29;19922;-57
2022/06/01 03:04:13;;;;;;;;;;;8.30;99.90;;;;;;4892055;29;19927;-57
2022/06/01 03:06:38;;;;;;;;;;;8.30;99.90;;;;;;4893836;29;20650;-57
2022/06/01 03:09:04;;;;;;;;;;;8.30;99.90;;;;;;4893100;29;19918;-57
2022/06/01 03:11:29;;;;;;;;;;;8.40;99.90;;;;;;4894030;29;20006;-57
2022/06/01 03:13:55;;;;;;;;;;;8.50;99.90;;;;;;4876193;29;19922;-57
2022/06/01 03:16:21;;;;;;;;;;;8.60;99.90;;;;;;4893916;29;19915;-57
2022/06/01 03:18:46;;;;;;;;;;;8.80;99.90;;;;;;4896475;29;19911;-57
2022/06/01 03:21:12;;;;;;;;;;;8.80;99.90;;;;;;4895599;29;20372;-57
2022/06/01 03:23:38;;;;;;;;;;;8.90;99.90;;;;;;4894897;29;19931;-57
2022/06/01 03:26:04;;;;;;;;;;;8.80;99.90;;;;;;4892689;29;20358;-57
2022/06/01 03:28:29;;;;;;;;;;;8.90;99.90;;;;;;4893507;29;19914;-56
2022/06/01 03:30:55;;;;;;;;;;;8.90;99.90;;;;;;4893278;29;20312;-57
2022/06/01 03:33:20;;;;;;;;;;;8.90;99.90;;;;;;4892542;29;19942;-56
2022/06/01 03:35:46;;;;;;;;;;;8.80;99.90;;;;;;4891677;29;20018;-57
2022/06/01 03:38:12;;;;;;;;;;;8.80;99.90;;;;;;4892316;29;19911;-57
2022/06/01 03:40:38;;;;;;;;;;;8.70;99.90;;;;;;4893585;29;20392;-57
2022/06/01 03:43:03;;;;;;;;;;;8.70;99.90;;;;;;4892793;29;20006;-58
2022/06/01 03:48:14;;;;;;;;;;;8.90;99.90;;;;;;4888466;29;19923;-57
2022/06/01 03:50:40;;;;;;;;;;;9.10;99.90;;;;;;4893542;29;19919;-57
2022/06/01 03:53:05;;;;;;;;;;;9.10;99.90;;;;;;4892504;29;19915;-57
2022/06/01 03:55:31;;;;;;;;;;;9.00;99.90;;;;;;4893348;29;19923;-57
2022/06/01 03:57:57;;;;;;;;;;;9.10;99.90;;;;;;4892805;29;19912;-56
2022/06/01 04:00:23;;;;;;;;;;;9.10;99.90;;;;;;4895106;29;19907;-57
2022/06/01 04:02:49;;;;;;;;;;;9.20;99.90;;;;;;4895336;29;20314;-57
2022/06/01 04:05:16;;;;;;;;;;;9.30;99.90;;;;;;4891573;29;19934;-57
2022/06/01 04:07:41;;;;;;;;;;;9.40;99.90;;;;;;4893100;29;19918;-56
2022/06/01 04:10:08;;;;;;;;;;;9.30;99.90;;;;;;4893678;29;19990;-57
2022/06/01 04:12:33;;;;;;;;;;;9.40;99.90;;;;;;4892918;29;19961;-56
2022/06/01 04:14:59;;;;;;;;;;;9.50;99.90;;;;;;4892328;29;20546;-57
2022/06/01 04:17:24;;;;;;;;;;;9.50;99.90;;;;;;4892782;29;19919;-56
2022/06/01 04:19:50;;;;;;;;;;;9.50;99.90;;;;;;4892721;29;20316;-56
2022/06/01 04:22:15;;;;;;;;;;;9.50;99.90;;;;;;4891901;29;19915;-57
2022/06/01 04:24:41;;;;;;;;;;;9.70;99.90;;;;;;4892440;29;20013;-56
2022/06/01 04:27:07;;;;;;;;;;;9.70;99.90;;;;;;4888478;29;19975;-57
2022/06/01 04:29:33;;;;;;;;;;;9.70;99.90;;;;;;4892780;29;20329;-56
2022/06/01 04:32:00;;;;;;;;;;;9.80;99.90;;;;;;4892254;29;19950;-57
2022/06/01 04:34:26;;;;;;;;;;;9.90;99.90;;;;;;4890759;29;20264;-57
2022/06/01 04:36:54;;;;;;;;;;;9.90;99.90;;;;;;4892361;29;20015;-58
2022/06/01 04:39:20;;;;;;;;;;;9.90;99.90;;;;;;4892353;29;19946;-56
2022/06/01 04:41:46;;;;;;;;;;;9.80;99.90;;;;;;4894904;29;20296;-57
2022/06/01 04:44:11;;;;;;;;;;;9.70;99.90;;;;;;4893004;29;19942;-56
2022/06/01 04:46:37;;;;;;;;;;;9.70;99.90;;;;;;4892262;29;19911;-57
2022/06/01 04:49:03;;;;;;;;;;;9.70;99.90;;;;;;4891571;29;19917;-56
2022/06/01 04:51:28;;;;;;;;;;;9.80;99.90;;;;;;4893522;29;20304;-57
2022/06/01 04:53:54;;;;;;;;;;;9.80;99.90;;;;;;4891378;29;19919;-56
2022/06/01 04:56:19;;;;;;;;;;;9.90;99.90;;;;;;4891967;29;20354;-57
2022/06/01 04:58:45;;;;;;;;;;;9.90;99.90;;;;;;4891741;29;19975;-57
2022/06/01 05:01:10;;;;;;;;;;;10.00;99.90;;;;;;4891443;29;19911;-57
2022/06/01 05:03:36;;;;;;;;;;;10.00;99.90;;;;;;4890149;29;19982;-57
2022/06/01 05:06:02;;;;;;;;;;;;;;;;;;4888679;29;19920;-56
2022/06/01 05:08:27;;;;;;;;;;;10.10;99.90;;;;;;4891582;29;19919;-57
2022/06/01 05:10:53;;;;;;;;;;;10.10;99.90;;;;;;4891682;29;19911;-57
2022/06/01 05:13:19;;;;;;;;;;;10.20;99.90;;;;;;4891307;29;20006;-57
2022/06/01 05:15:45;;;;;;;;;;;10.20;99.90;;;;;;4890812;29;20337;-57
2022/06/01 05:18:12;;;;;;;;;;;10.30;99.90;;;;;;4892845;29;20363;-56
2022/06/01 05:20:38;;;;;;;;;;;10.30;99.90;;;;;;4891997;29;19907;-57
2022/06/01 05:23:04;;;;;;;;;;;10.30;99.90;;;;;;4892480;29;19907;-56
2022/06/01 05:25:29;;;;;;;;;;;10.40;99.90;;;;;;4892159;29;19912;-57
2022/06/01 05:27:55;;;;;;;;;;;10.50;99.90;;;;;;4890326;29;19971;-57
2022/06/01 05:30:20;;;;;;;;;;;10.60;99.90;;;;;;4891314;29;19999;-57
2022/06/01 05:32:46;;;;;;;;;;;10.60;99.90;;;;;;4891216;29;20343;-57
2022/06/01 05:35:11;;;;;;;;;;;10.70;99.90;;;;;;4888395;29;20014;-57
2022/06/01 05:37:37;;;;;;;;;;;10.70;99.90;;;;;;4890457;29;19974;-56
2022/06/01 05:40:03;;;;;;;;;;;10.80;99.90;;;;;;4889774;29;19918;-57
2022/06/01 05:42:29;;;;;;;;;;;10.80;99.90;;;;;;4890562;29;19955;-57
2022/06/01 05:44:54;;;;;;;;;;;10.90;99.90;;;;;;4890387;29;19918;-58
2022/06/01 05:47:20;;;;;;;;;;;11.00;99.90;;;;;;4890200;29;19911;-57
2022/06/01 05:49:47;;;;;;;;;;;11.00;99.90;;;;;;4890433;29;19915;-57
2022/06/01 05:52:13;;;;;;;;;;;11.10;99.90;;;;;;4890205;29;19911;-56
2022/06/01 05:54:38;;;;;;;;;;;11.20;99.90;;;;;;4890324;29;20356;-56
2022/06/01 05:57:04;;;;;;;;;;;11.20;99.90;;;;;;4889826;29;19919;-56
2022/06/01 05:59:29;;;;;;;;;;;11.30;99.90;;;;;;4890332;29;19915;-57
2022/06/01 06:01:55;;;;;;;;;;;11.50;99.90;;;;;;4892165;29;20040;-56
2022/06/01 06:04:21;;;;;;;;;;;;;;;;;;4890864;29;20085;-57
2022/06/01 06:06:47;;;;;;;;;;;11.50;99.90;;;;;;4887654;29;20045;-57
2022/06/01 06:09:12;;;;;;;;;;;11.50;99.90;;;;;;4888999;29;19918;-58
2022/06/01 06:11:39;;;;;;;;;;;11.60;99.90;;;;;;4891309;29;19914;-57
2022/06/01 06:14:05;;;;;;;;;;;11.70;99.90;;;;;;4889476;29;19917;-57
2022/06/01 06:16:32;;;;;;;;;;;11.70;99.90;;;;;;4889937;29;20410;-57
2022/06/01 06:18:58;;;;;;;;;;;11.70;99.90;;;;;;4890306;29;19911;-56
2022/06/01 06:21:27;;;;;;;;;;;11.70;99.90;;;;;;4890316;29;19915;-57
2022/06/01 06:23:53;;;;;;;;;;;11.90;99.90;;;;;;4886703;29;19943;-57
2022/06/01 06:26:20;;;;;;;;;;;11.90;99.90;;;;;;4889424;29;20043;-57
2022/06/01 06:28:46;;;;;;;;;;;12.10;99.90;;;;;;4890201;29;19915;-57
2022/06/01 06:31:12;;;;;;;;;;;12.20;99.90;;;;;;4889393;29;19921;-57
2022/06/01 06:33:40;;;;;;;;;;;12.10;99.90;;;;;;4888762;29;19915;-56
2022/06/01 06:36:06;;;;;;;;;;;12.20;99.90;;;;;;4889325;29;19926;-57
2022/06/01 06:38:33;;;;;;;;;;;12.30;99.90;;;;;;4889879;29;19911;-57
2022/06/01 06:40:59;;;;;;;;;;;12.30;99.90;;;;;;4889641;29;19921;-56
2022/06/01 06:43:25;;;;;;;;;;;12.40;99.90;;;;;;4892802;29;20356;-57
2022/06/01 06:45:55;;;;;;;;;;;12.50;99.90;;;;;;4892447;29;19908;-56
2022/06/01 06:48:20;;;;;;;;;;;12.60;99.90;;;;;;4889573;29;19963;-57
2022/06/01 06:50:46;;;;;;;;;;;12.70;99.90;;;;;;4889992;29;19915;-56
2022/06/01 06:53:11;;;;;;;;;;;12.80;99.90;;;;;;4890621;29;19912;-57
2022/06/01 06:55:37;;;;;;;;;;;12.70;99.90;;;;;;4889932;29;20484;-56
2022/06/01 06:58:02;;;;;;;;;;;12.80;99.90;;;;;;4889245;29;19911;-57
2022/06/01 07:00:28;;;;;;;;;;;12.80;99.90;;;;;;4889827;29;19947;-56
2022/06/01 07:02:53;;;;;;;;;;;12.90;99.90;;;;;;4889980;29;19915;-58
2022/06/01 07:08:06;;;;;;;;;;;13.10;99.90;;;;;;4889192;29;20399;-56
2022/06/01 07:10:32;;;;;;;;;;;13.30;99.90;;;;;;4889918;29;19917;-57
2022/06/01 07:12:57;;;;;;;;;;;13.40;99.90;;;;;;4889820;29;19911;-57
2022/06/01 07:15:23;;;;;;;;;;;13.40;99.90;;;;;;4889148;29;19922;-57
2022/06/01 07:17:48;;;;;;;;;;;13.30;99.90;;;;;;4892762;29;19915;-57
2022/06/01 07:20:14;;;;;;;;;;;13.20;99.90;;;;;;4889455;29;19911;-57
2022/06/01 07:22:39;;;;;;;;;;;13.30;99.90;;;;;;4892876;29;19998;-57
2022/06/01 07:25:05;;;;;;;;;;;13.40;99.90;;;;;;4895040;29;19911;-57
2022/06/01 07:27:30;;;;;;;;;;;13.30;99.90;;;;;;4894924;29;19995;-56
2022/06/01 07:29:56;;;;;;;;;;;13.40;99.90;;;;;;4893019;29;19918;-56
2022/06/01 07:32:21;;;;;;;;;;;13.50;99.90;;;;;;4893283;29;19914;-57
2022/06/01 07:34:47;;;;;;;;;;;13.50;99.90;;;;;;4891688;29;19966;-57
2022/06/01 07:45:29;;;;;;;;;;;13.70;99.90;;;;;;4892754;29;19918;-57
2022/06/01 07:47:54;;;;;;;;;;;13.80;99.90;;;;;;4892383;29;20360;-57
2022/06/01 07:50:20;;;;;;;;;;;13.90;99.90;;;;;;4892183;29;19918;-56
2022/06/01 07:52:45;;;;;;;;;;;13.90;99.90;;;;;;4891014;29;19923;-57
2022/06/01 07:55:11;;;;;;;;;;;13.90;99.90;;;;;;4891650;29;20095;-57
2022/06/01 07:57:36;;;;;;;;;;;14.00;99.90;;;;;;4892572;29;19911;-57
2022/06/01 08:00:02;;;;;;;;;;;14.10;99.90;;;;;;4892080;29;20638;-56
2022/06/01 08:02:28;;;;;;;;;;;14.50;99.90;;;;;;4892623;29;20464;-57
2022/06/01 08:04:53;;;;;;;;;;;14.90;99.90;;;;;;4892881;29;19923;-56
2022/06/01 08:07:19;;;;;;;;;;;15.20;99.90;;;;;;4890493;29;19907;-57
2022/06/01 08:09:44;;;;;;;;;;;14.80;99.90;;;;;;4892178;29;19911;-57
2022/06/01 08:14:54;;;;;;;;;;;15.20;99.90;;;;;;4892986;29;20394;-57
2022/06/01 08:17:19;;;;;;;;;;;15.60;99.90;;;;;;4892440;29;19911;-57
2022/06/01 08:19:46;;;;;;;;;;;15.90;99.90;;;;;;4891681;29;20481;-57
2022/06/01 08:22:12;;;;;;;;;;;16.10;99.90;;;;;;4891406;29;20002;-57
2022/06/01 08:24:37;;;;;;;;;;;15.40;99.90;;;;;;4891784;29;20759;-57
2022/06/01 08:27:03;;;;;;;;;;;14.90;99.90;;;;;;4891926;29;19934;-57
2022/06/01 08:29:28;;;;;;;;;;;14.90;99.90;;;;;;4891603;29;20039;-56
2022/06/01 08:31:54;;;;;;;;;;;15.40;99.90;;;;;;4891637;29;19915;-57
2022/06/01 08:34:19;;;;;;;;;;;15.60;99.90;;;;;;4889011;29;19915;-57
2022/06/01 08:36:47;;;;;;;;;;;15.70;99.90;;;;;;4891723;29;19917;-57
2022/06/01 08:39:12;;;;;;;;;;;16.30;99.90;;;;;;4891218;29;19915;-57
2022/06/01 08:41:39;;;;;;;;;;;17.60;99.90;;;;;;4891656;29;19918;-57
2022/06/01 08:44:18;;;;;;;;;;;17.90;99.90;;;;;;4892354;29;19907;-57
2022/06/01 08:46:44;;;;;;;;;;;17.90;99.90;;;;;;4890373;29;20002;-57
2022/06/01 08:49:14;;;;;;;;;;;18.20;99.90;;;;;;4892114;29;20002;-57
2022/06/01 08:51:39;;;;;;;;;;;18.50;99.90;;;;;;4891247;29;20288;-57
2022/06/01 08:54:05;;;;;;;;;;;18.40;99.90;;;;;;4874568;29;20010;-57
2022/06/01 08:56:34;;;;;;;;;;;18.80;99.90;;;;;;4891599;29;19919;-57
2022/06/01 08:59:19;;;;;;;;;;;18.70;99.90;;;;;;4891200;29;19912;-58
2022/06/01 09:01:53;;;;;;;;;;;18.80;99.90;;;;;;4889775;29;19962;-57
2022/06/01 09:04:19;;;;;;;;;;;17.30;99.90;;;;;;4885267;29;20399;-57
2022/06/01 09:06:48;;;;;;;;;;;17.10;99.90;;;;;;4891078;29;19911;-57
2022/06/01 09:09:17;;;;;;;;;;;17.70;99.90;;;;;;4890058;29;19927;-58
2022/06/01 09:11:46;;;;;;;;;;;18.80;99.90;;;;;;4891140;29;19946;-56
2022/06/01 09:14:16;;;;;;;;;;;18.90;98.10;;;;;;4890119;29;19952;-57
2022/06/01 09:16:46;;;;;;;;;;;18.30;99.90;;;;;;4891388;29;19916;-57
2022/06/01 09:22:38;;;;;;;;;;;17.90;99.90;;;;;;4850652;29;19956;-57
2022/06/01 09:25:12;;;;;;;;;;;18.20;99.90;;;;;;4852329;29;19931;-57
2022/06/01 09:27:39;;;;;;;;;;;18.90;99.20;;;;;;4869252;29;19955;-57
2022/06/01 09:30:31;;;;;;;;;;;18.00;99.90;;;;;;4891531;29;20329;-56
2022/06/01 09:33:02;;;;;;;;;;;17.60;99.90;;;;;;4886815;29;19927;-57
2022/06/01 09:35:34;;;;;;;;;;;17.30;99.90;;;;;;4889637;29;20410;-57
2022/06/01 09:38:04;;;;;;;;;;;18.50;99.90;;;;;;4887478;29;19953;-57
2022/06/01 09:40:35;;;;;;;;;;;19.20;99.30;;;;;;4889844;29;19975;-58
2022/06/01 09:43:01;;;;;;;;;;;18.70;99.50;;;;;;4890607;29;19931;-57
2022/06/01 09:45:28;;;;;;;;;;;18.30;99.90;;;;;;4889205;29;20418;-58
2022/06/01 09:48:08;;;;;;;;;;;18.70;99.90;;;;;;4890633;29;20229;-57
2022/06/01 09:50:34;;;;;;;;;;;18.60;98.80;;;;;;4890761;29;20657;-58
2022/06/01 09:53:13;;;;;;;;;;;18.80;99.00;;;;;;4890319;29;19912;-57
2022/06/01 09:55:55;;;;;;;;;;;19.10;99.10;;;;;;4888198;29;19915;-57
2022/06/01 10:06:48;;;;;;;;;;;18.00;98.30;;;;;;4893038;29;19922;-57
2022/06/01 10:09:19;;;;;;;;;;;18.70;96.90;;;;;;4892280;29;20371;-58
2022/06/01 10:11:46;;;;;;;;;;;19.80;96.10;;;;;;4890273;29;19987;-57
2022/06/01 10:14:40;;;;;;;;;;;19.90;95.30;;;;;;4889580;29;19958;-58
2022/06/01 10:17:09;;;;;;;;;;;19.70;95.30;;;;;;4874395;29;20405;-57
2022/06/01 10:19:37;;;;;;;;;;;19.40;94.30;;;;;;4890124;29;19911;-57
2022/06/01 10:22:23;;;;;;;;;;;19.60;95.20;;;;;;4890074;29;19918;-58
2022/06/01 10:25:01;;;;;;;;;;;20.50;93.30;;;;;;4890233;29;19979;-58
2022/06/01 10:27:29;;;;;;;;;;;21.30;93.80;;;;;;4887060;29;19911;-57
2022/06/01 10:30:15;;;;;;;;;;;20.80;91.90;;;;;;4890107;29;19955;-57
2022/06/01 10:32:43;;;;;;;;;;;20.10;92.40;;;;;;4887260;29;19911;-58
2022/06/01 10:35:11;;;;;;;;;;;19.80;93.20;;;;;;4887848;29;19923;-57
2022/06/01 10:37:40;;;;;;;;;;;19.30;92.50;;;;;;4889785;29;20018;-57
2022/06/01 10:40:06;;;;;;;;;;;18.80;94.50;;;;;;4889963;29;19912;-57
2022/06/01 10:45:29;;;;;;;;;;;21.10;93.00;;;;;;4890356;29;19930;-57
2022/06/01 10:48:07;;;;;;;;;;;21.60;90.30;;;;;;4892033;29;19915;-57
2022/06/01 10:50:37;;;;;;;;;;;21.60;88.40;;;;;;4891121;29;20023;-57
2022/06/01 10:53:05;;;;;;;;;;;21.30;87.20;;;;;;4889667;29;19911;-58
2022/06/01 10:55:34;;;;;;;;;;;21.80;88.00;;;;;;4890000;29;19911;-58
2022/06/01 10:58:01;;;;;;;;;;;22.30;85.90;;;;;;4892554;29;19911;-57
2022/06/01 11:00:29;;;;;;;;;;;22.60;82.90;;;;;;4893040;29;19935;-57
2022/06/01 11:02:55;;;;;;;;;;;22.60;81.40;;;;;;4889775;29;19919;-58
2022/06/01 11:05:25;;;;;;;;;;;22.10;81.90;;;;;;4890861;29;19927;-58
2022/06/01 11:08:19;;;;;;;;;;;22.10;83.40;;;;;;4891069;29;19911;-58
2022/06/01 11:11:00;;;;;;;;;;;23.50;82.10;;;;;;4884927;29;20358;-58
2022/06/01 11:13:45;;;;;;;;;;;22.90;78.90;;;;;;4892565;29;19915;-58
2022/06/01 11:16:11;;;;;;;;;;;22.30;81.10;;;;;;4892437;29;19922;-57
2022/06/01 11:18:55;;;;;;;;;;;22.60;81.10;;;;;;4892931;29;20379;-57
2022/06/01 11:21:26;;;;;;;;;;;22.10;77.60;;;;;;4892527;29;20328;-58
2022/06/01 11:23:54;;;;;;;;;;;20.80;82.00;;;;;;4889899;29;20485;-57
2022/06/01 11:26:26;;;;;;;;;;;20.50;80.50;;;;;;4893355;29;20378;-58
2022/06/01 11:29:00;;;;;;;;;;;20.80;81.60;;;;;;4895569;29;19990;-58
2022/06/01 11:31:27;;;;;;;;;;;20.70;83.30;;;;;;4890206;29;19915;-57
2022/06/01 11:33:55;;;;;;;;;;;20.70;83.10;;;;;;4890896;29;19922;-57
2022/06/01 11:36:39;;;;;;;;;;;21.30;81.60;;;;;;4893216;29;19979;-58
2022/06/01 11:39:12;;;;;;;;;;;22.50;79.00;;;;;;4892829;29;19911;-57
2022/06/01 11:41:39;;;;;;;;;;;21.70;79.20;;;;;;4892646;29;19922;-58
2022/06/01 11:44:20;;;;;;;;;;;21.70;80.30;;;;;;4892632;29;19912;-58
2022/06/01 11:46:45;;;;;;;;;;;21.30;80.70;;;;;;4890296;29;19915;-57
2022/06/01 11:49:13;;;;;;;;;;;22.50;77.50;;;;;;4892215;29;20289;-57
2022/06/01 11:51:38;;;;;;;;;;;22.80;78.60;;;;;;4892566;29;20386;-58
2022/06/01 11:54:08;;;;;;;;;;;23.90;76.40;;;;;;4892030;29;19912;-57
2022/06/01 11:56:34;;;;;;;;;;;23.90;74.90;;;;;;4888398;29;19919;-58
2022/06/01 11:59:06;;;;;;;;;;;23.40;73.60;;;;;;4892365;29;20269;-57
2022/06/01 12:01:33;;;;;;;;;;;22.50;76.60;;;;;;4891632;29;19911;-57
2022/06/01 12:03:59;;;;;;;;;;;21.10;79.40;;;;;;4890104;29;20371;-57
2022/06/01 12:06:44;;;;;;;;;;;20.20;83.10;;;;;;4892444;29;19907;-57
2022/06/01 12:09:16;;;;;;;;;;;20.10;84.80;;;;;;4882372;29;19911;-57
2022/06/01 12:11:43;;;;;;;;;;;18.80;88.30;;;;;;4893848;29;19912;-57
2022/06/01 12:14:28;;;;;;;;;;;18.40;90.70;;;;;;4891899;29;19917;-57
2022/06/01 12:17:12;;;;;;;;;;;18.40;91.50;;;;;;4894630;29;19911;-58
2022/06/01 12:19:37;;;;;;;;;;;18.10;90.90;;;;;;4891374;29;20434;-57
2022/06/01 12:22:03;;;;;;;;;;;18.10;92.10;;;;;;4892266;29;19919;-57
2022/06/01 12:30:00;;;;;;;;;;;17.70;92.70;;;;;;4891792;29;19969;-57
2022/06/01 12:32:27;;;;;;;;;;;17.60;92.10;;;;;;4891118;29;19920;-57
2022/06/01 12:34:59;;;;;;;;;;;17.70;92.70;;;;;;4889518;29;19920;-58
2022/06/01 12:37:35;;;;;;;;;;;17.60;92.70;;;;;;4888004;29;20003;-57
2022/06/01 12:40:04;;;;;;;;;;;17.40;93.60;;;;;;4891182;29;19912;-57
2022/06/01 12:42:33;;;;;;;;;;;17.10;94.50;;;;;;4890886;29;19911;-57
2022/06/01 12:45:00;;;;;;;;;;;16.30;99.90;;;;;;4889740;29;19911;-57
2022/06/01 12:47:28;;;;;;;;;;;15.60;99.90;;;;;;4891966;29;19907;-57
2022/06/01 12:49:53;;;;;;;;;;;15.10;99.90;;;;;;4893564;29;19911;-58
2022/06/01 12:52:20;;;;;;;;;;;15.00;99.90;;;;;;4892576;29;19918;-57
2022/06/01 12:54:55;;;;;;;;;;;15.00;99.90;;;;;;4891075;29;20447;-58
2022/06/01 12:57:23;;;;;;;;;;;15.20;99.90;;;;;;4888222;29;19907;-58
2022/06/01 12:59:54;;;;;;;;;;;15.40;99.90;;;;;;4891959;29;19911;-57
2022/06/01 13:02:20;;;;;;;;;;;15.50;99.90;;;;;;4869829;29;19942;-58
2022/06/01 13:04:53;;;;;;;;;;;16.30;99.90;;;;;;4889303;29;20443;-57
2022/06/01 13:07:19;;;;;;;;;;;17.20;99.90;;;;;;4890641;29;19915;-57
2022/06/01 13:09:44;;;;;;;;;;;19.50;99.90;;;;;;4890986;29;19918;-57
2022/06/01 13:12:17;;;;;;;;;;;20.50;99.90;;;;;;4891000;29;20350;-58
2022/06/01 13:14:44;;;;;;;;;;;22.10;99.90;;;;;;4890818;29;19954;-58
2022/06/01 13:17:15;;;;;;;;;;;22.20;95.80;;;;;;4891533;29;19999;-58
2022/06/01 13:19:41;;;;;;;;;;;22.00;95.40;;;;;;4890840;29;19918;-58
2022/06/01 13:22:22;;;;;;;;;;;22.60;93.60;;;;;;4890899;29;19911;-57
2022/06/01 13:25:14;;;;;;;;;;;21.80;93.30;;;;;;4890387;29;19918;-57
2022/06/01 13:27:40;;;;;;;;;;;20.80;94.60;;;;;;4885109;29;19907;-57
2022/06/01 13:30:07;;;;;;;;;;;20.20;94.80;;;;;;4893064;29;19911;-57
2022/06/01 13:32:43;;;;;;;;;;;19.70;96.00;;;;;;4892047;29;19915;-57
2022/06/01 13:35:28;;;;;;;;;;;18.70;96.80;;;;;;4887948;29;19963;-57
2022/06/01 13:37:55;;;;;;;;;;;17.00;99.90;;;;;;4889221;29;19911;-57
2022/06/01 13:40:28;;;;;;;;;;;16.30;99.90;;;;;;4890614;29;19963;-57
2022/06/01 13:43:09;;;;;;;;;;;15.80;99.90;;;;;;4887411;29;20007;-57
2022/06/01 13:45:53;;;;;;;;;;;15.20;99.90;;;;;;4890085;29;19967;-57
2022/06/01 13:48:18;;;;;;;;;;;14.90;99.90;;;;;;4888179;29;20733;-57
2022/06/01 13:50:45;;;;;;;;;;;14.90;99.90;;;;;;4890313;29;20006;-57
2022/06/01 13:53:30;;;;;;;;;;;14.90;99.90;;;;;;4890342;29;20419;-57
2022/06/01 13:55:57;;;;;;;;;;;14.90;99.90;;;;;;4889028;29;19916;-57
2022/06/01 13:58:33;;;;;;;;;;;15.00;99.90;;;;;;4889789;29;19930;-57
2022/06/01 14:01:08;;;;;;;;;;;15.10;99.90;;;;;;4887704;29;20368;-57
2022/06/01 14:03:36;;;;;;;;;;;14.80;99.90;;;;;;4888083;29;19923;-57
2022/06/01 14:06:01;;;;;;;;;;;14.60;99.90;;;;;;4888657;29;19925;-57
2022/06/01 14:08:42;;;;;;;;;;;14.20;99.90;;;;;;4890430;29;19907;-57
2022/06/01 14:11:10;;;;;;;;;;;14.10;99.90;;;;;;4892320;29;19911;-57
2022/06/01 14:13:38;;;;;;;;;;;13.80;99.90;;;;;;4891249;29;19967;-57
2022/06/01 14:16:03;;;;;;;;;;;13.60;99.90;;;;;;4887940;29;20018;-58
2022/06/01 14:18:33;;;;;;;;;;;13.80;99.90;;;;;;4892584;29;20047;-57
2022/06/01 14:20:59;;;;;;;;;;;14.00;99.90;;;;;;4890782;29;19967;-57
2022/06/01 14:23:24;;;;;;;;;;;14.00;99.90;;;;;;4889434;29;19947;-57
2022/06/01 14:28:36;;;;;;;;;;;13.80;99.90;;;;;;4889868;29;19915;-57
2022/06/01 14:31:09;;;;;;;;;;;13.40;99.90;;;;;;4891300;29;20514;-57
2022/06/01 14:33:35;;;;;;;;;;;12.90;99.90;;;;;;4892022;29;19915;-57
2022/06/01 14:36:00;;;;;;;;;;;12.70;99.90;;;;;;4893874;29;19946;-57
2022/06/01 14:38:27;;;;;;;;;;;12.60;99.90;;;;;;4893050;29;19998;-57
2022/06/01 14:40:53;;;;;;;;;;;12.60;99.90;;;;;;4893832;29;19976;-57
2022/06/01 14:43:23;;;;;;;;;;;12.60;99.90;;;;;;4894061;29;19966;-57
2022/06/01 14:45:49;;;;;;;;;;;12.30;99.90;;;;;;4893316;29;20284;-57
2022/06/01 14:48:14;;;;;;;;;;;12.20;99.90;;;;;;4893197;29;19912;-57
2022/06/01 14:50:40;;;;;;;;;;;12.30;99.90;;;;;;4894834;29;20330;-57
2022/06/01 14:53:10;;;;;;;;;;;12.50;99.90;;;;;;4895704;29;19915;-58
2022/06/01 14:55:36;;;;;;;;;;;13.00;99.90;;;;;;4892922;29;19994;-57
2022/06/01 14:58:01;;;;;;;;;;;13.50;99.90;;;;;;4893200;29;20375;-57
2022/06/01 15:00:27;;;;;;;;;;;13.90;99.90;;;;;;4893974;29;20003;-57
2022/06/01 15:02:54;;;;;;;;;;;14.10;99.90;;;;;;4875979;29;19916;-57
2022/06/01 15:05:20;;;;;;;;;;;14.10;99.90;;;;;;4891049;29;19931;-57
2022/06/01 15:07:45;;;;;;;;;;;14.20;99.90;;;;;;4892611;29;20482;-57
2022/06/01 15:10:11;;;;;;;;;;;14.10;99.90;;;;;;4893019;29;19911;-57
2022/06/01 15:12:38;;;;;;;;;;;13.90;99.90;;;;;;4892533;29;19916;-57